Time;durP1;ratioP1;P1;durP2;ratioP2;P2;SDS_P1;SDS_P2;PMS_P1;PMS_P2;Temp;Humidity;BMP_temperature;BMP_pressure;BME280_temperature;BME280_humidity;BME280_pressure;Samples;Min_cycle;Max_cycle;Signal;HPM_P1;HPM_P2
2023/02/15 00:01:23;;;;;;;19.98;12.90;;;-0.20;99.90;;;;;;7383865;19;20360;-80
2023/02/15 00:03:48;;;;;;;20.73;13.73;;;-0.30;99.90;;;;;;7379644;19;20344;-80
2023/02/15 00:06:14;;;;;;;20.15;13.35;;;-0.40;99.90;;;;;;7381291;19;20400;-79
2023/02/15 00:08:40;;;;;;;18.70;12.88;;;-0.40;99.90;;;;;;7383343;19;20327;-77
2023/02/15 00:11:10;;;;;;;16.00;11.50;;;-0.40;99.90;;;;;;7382721;19;20333;-86
2023/02/15 00:13:36;;;;;;;20.98;12.80;;;-0.40;99.90;;;;;;7383204;19;20321;-85
2023/02/15 00:16:05;;;;;;;18.35;13.00;;;-0.40;99.90;;;;;;7382665;19;20928;-79
2023/02/15 00:18:31;;;;;;;21.70;13.63;;;-0.40;99.90;;;;;;7382039;19;20312;-80
2023/02/15 00:20:57;;;;;;;18.70;13.60;;;-0.50;99.90;;;;;;7382305;19;20355;-79
2023/02/15 00:23:22;;;;;;;19.75;13.10;;;-0.50;99.90;;;;;;7380229;19;20805;-81
2023/02/15 00:25:48;;;;;;;18.25;12.10;;;-0.50;99.90;;;;;;7382301;19;20436;-81
2023/02/15 00:28:14;;;;;;;17.87;12.23;;;-0.50;99.90;;;;;;7381850;19;20403;-79
2023/02/15 00:30:39;;;;;;;19.23;12.73;;;-0.50;99.90;;;;;;7384538;19;20343;-79
2023/02/15 00:33:05;;;;;;;19.07;13.67;;;-0.40;99.90;;;;;;7380555;19;20331;-79
2023/02/15 00:35:32;;;;;;;20.00;12.27;;;-0.40;99.90;;;;;;7383038;19;20352;-81
2023/02/15 00:37:58;;;;;;;18.00;11.73;;;-0.50;99.90;;;;;;7382270;19;20435;-79
2023/02/15 00:40:23;;;;;;;19.00;12.35;;;-0.60;99.90;;;;;;7382739;19;20328;-78
2023/02/15 00:42:49;;;;;;;20.53;14.40;;;-0.60;99.90;;;;;;7380058;19;20353;-78
2023/02/15 00:45:14;;;;;;;18.48;11.75;;;-0.70;99.90;;;;;;7379787;19;20341;-81
2023/02/15 00:47:40;;;;;;;18.67;12.33;;;-0.70;99.90;;;;;;7379924;19;20339;-80
2023/02/15 00:50:07;;;;;;;21.75;13.00;;;-0.70;99.90;;;;;;7381046;19;20305;-80
2023/02/15 00:52:33;;;;;;;15.38;10.88;;;-0.70;99.90;;;;;;7383027;19;20319;-80
2023/02/15 00:54:58;;;;;;;16.93;12.37;;;-0.70;99.90;;;;;;7379635;19;20344;-80
2023/02/15 00:57:24;;;;;;;19.00;11.82;;;-0.60;99.90;;;;;;7383655;19;20340;-83
2023/02/15 00:59:49;;;;;;;17.23;12.00;;;-0.70;99.90;;;;;;7383072;19;20916;-83
2023/02/15 01:02:15;;;;;;;16.33;11.77;;;-0.80;99.90;;;;;;7378166;19;20963;-79
2023/02/15 01:04:40;;;;;;;17.90;11.83;;;-0.80;99.90;;;;;;7376296;19;20324;-80
2023/02/15 01:07:06;;;;;;;17.08;11.63;;;-0.80;99.90;;;;;;7378183;19;20328;-81
2023/02/15 01:09:32;;;;;;;16.73;12.30;;;-0.80;99.90;;;;;;7378216;19;20317;-80
2023/02/15 01:12:00;;;;;;;17.83;11.63;;;-0.80;99.90;;;;;;7374062;19;21178;-81
2023/02/15 01:14:25;;;;;;;17.40;11.85;;;-0.80;99.90;;;;;;7380979;19;20412;-79
2023/02/15 01:16:51;;;;;;;17.77;11.47;;;-0.80;99.90;;;;;;7380217;19;20435;-83
2023/02/15 01:19:17;;;;;;;15.77;10.93;;;-0.80;99.90;;;;;;7377948;19;20328;-85
2023/02/15 01:21:42;;;;;;;17.70;11.98;;;-0.80;99.90;;;;;;7380888;19;20347;-80
2023/02/15 01:24:13;;;;;;;20.75;11.77;;;-0.80;99.90;;;;;;7374290;19;20332;-80
2023/02/15 01:26:38;;;;;;;18.23;12.48;;;-0.80;99.90;;;;;;7378904;19;20816;-80
2023/02/15 01:29:04;;;;;;;18.00;12.17;;;-0.80;99.90;;;;;;7382014;19;20324;-80
2023/02/15 01:31:30;;;;;;;16.37;11.87;;;-0.80;99.90;;;;;;7381284;19;20300;-77
2023/02/15 01:33:59;;;;;;;17.37;11.20;;;-0.80;99.90;;;;;;7378671;19;20309;-80
2023/02/15 01:36:24;;;;;;;17.60;12.32;;;-0.80;99.90;;;;;;7366188;19;20408;-79
2023/02/15 01:38:51;;;;;;;20.33;13.40;;;-0.90;99.90;;;;;;7376820;19;20359;-80
2023/02/15 01:41:19;;;;;;;19.85;12.48;;;-0.80;99.90;;;;;;7374257;19;20313;-82
2023/02/15 01:43:47;;;;;;;16.30;11.85;;;-0.90;99.90;;;;;;7380496;19;20908;-79
2023/02/15 01:46:13;;;;;;;20.07;12.93;;;-0.90;99.90;;;;;;7380057;19;20671;-79
2023/02/15 01:48:45;;;;;;;17.42;11.07;;;-1.00;99.90;;;;;;7379965;19;20344;-80
2023/02/15 01:51:11;;;;;;;16.08;11.45;;;-1.00;99.90;;;;;;7377892;19;20399;-82
2023/02/15 01:53:57;;;;;;;19.80;12.10;;;-1.00;99.90;;;;;;7379047;19;20780;-81
2023/02/15 01:56:30;;;;;;;15.48;11.18;;;-1.00;99.90;;;;;;7373969;19;20370;-78
2023/02/15 01:58:57;;;;;;;18.13;12.55;;;-1.10;99.90;;;;;;7378974;19;20339;-79
2023/02/15 02:01:24;;;;;;;20.38;12.88;;;-1.10;99.90;;;;;;7378549;19;21277;-78
2023/02/15 02:04:12;;;;;;;17.38;11.98;;;-1.10;99.90;;;;;;7372810;19;20432;-81
2023/02/15 02:06:38;;;;;;;18.53;12.70;;;-1.20;99.90;;;;;;7269479;19;2004506;-79
2023/02/15 02:09:05;;;;;;;20.45;12.43;;;-1.10;99.90;;;;;;7377853;19;20338;-79
2023/02/15 02:11:31;;;;;;;19.43;12.43;;;-1.10;99.90;;;;;;7377102;19;20308;-79
2023/02/15 02:13:56;;;;;;;16.85;12.45;;;-1.20;99.90;;;;;;7377841;19;20315;-77
2023/02/15 02:16:25;;;;;;;16.60;12.27;;;-1.10;99.90;;;;;;7371264;19;20345;-79
2023/02/15 02:19:17;;;;;;;19.05;12.75;;;-1.20;99.90;;;;;;7376567;19;20344;-78
2023/02/15 02:22:03;;;;;;;18.30;12.32;;;-1.20;99.90;;;;;;7274799;19;2004997;-78
2023/02/15 02:24:45;;;;;;;17.35;11.88;;;-1.20;99.90;;;;;;7378979;19;20337;-79
2023/02/15 02:27:10;;;;;;;17.87;12.43;;;-1.30;99.90;;;;;;7275337;19;2019772;-78
2023/02/15 02:29:54;;;;;;;22.03;12.57;;;-1.30;99.90;;;;;;7379719;19;20910;-83
2023/02/15 02:32:43;;;;;;;17.67;12.20;;;-1.40;99.90;;;;;;7378578;19;20312;-80
2023/02/15 02:35:14;;;;;;;17.05;12.10;;;-1.30;99.90;;;;;;7273306;19;2009000;-80
2023/02/15 02:38:06;;;;;;;17.60;12.57;;;-1.30;99.90;;;;;;7375377;19;20369;-79
2023/02/15 02:40:48;;;;;;;16.63;12.20;;;-1.40;99.90;;;;;;7380496;19;20309;-79
2023/02/15 02:43:31;;;;;;;21.85;14.07;;;-1.40;99.90;;;;;;7278087;19;2004348;-77
2023/02/15 02:46:03;;;;;;;17.83;12.97;;;-1.40;99.90;;;;;;7379601;19;20324;-79
2023/02/15 02:48:30;;;;;;;18.42;12.82;;;-1.40;99.90;;;;;;7380233;19;20324;-79
2023/02/15 02:50:56;;;;;;;20.17;12.83;;;-1.50;99.90;;;;;;7379426;19;20337;-83
2023/02/15 02:53:21;;;;;;;16.02;11.00;;;-1.50;99.90;;;;;;7378469;19;20309;-80
2023/02/15 02:56:21;;;;;;;19.52;13.18;;;-1.50;99.90;;;;;;7379426;19;20352;-83
2023/02/15 02:58:50;;;;;;;19.42;12.23;;;-1.50;99.90;;;;;;7277733;19;2004165;-79
2023/02/15 03:01:20;;;;;;;17.92;11.77;;;-1.50;99.90;;;;;;7378259;19;20317;-79
2023/02/15 03:03:49;;;;;;;19.05;12.77;;;-1.50;99.90;;;;;;7371870;19;20852;-79
2023/02/15 03:06:27;;;;;;;18.60;12.73;;;-1.50;99.90;;;;;;7379073;19;20328;-79
2023/02/15 03:08:56;;;;;;;21.10;12.98;;;-1.50;99.90;;;;;;7379112;19;20987;-78
2023/02/15 03:11:22;;;;;;;19.33;13.37;;;-1.60;99.90;;;;;;7378044;19;20750;-80
2023/02/15 03:13:49;;;;;;;19.17;13.13;;;-1.60;99.90;;;;;;7377846;19;20352;-81
2023/02/15 03:16:27;;;;;;;18.87;12.73;;;-1.60;99.90;;;;;;7377900;19;20663;-81
2023/02/15 03:19:00;;;;;;;21.83;13.55;;;-1.70;99.90;;;;;;7375740;19;20336;-79
2023/02/15 03:21:42;;;;;;;15.82;12.25;;;-1.70;99.90;;;;;;7377783;19;21219;-77
2023/02/15 03:24:13;;;;;;;19.20;12.95;;;-1.70;99.90;;;;;;7272711;19;2004621;-79
2023/02/15 03:26:38;;;;;;;16.63;11.57;;;-1.60;99.90;;;;;;7374122;19;20383;-80
2023/02/15 03:29:04;;;;;;;18.43;12.77;;;-1.70;99.90;;;;;;7377773;19;20983;-80
2023/02/15 03:31:31;;;;;;;17.60;11.90;;;-1.70;99.90;;;;;;7378108;19;20316;-79
2023/02/15 03:33:59;;;;;;;18.08;11.90;;;-1.80;99.90;;;;;;7375615;19;20684;-80
2023/02/15 03:36:43;;;;;;;17.52;11.95;;;-1.80;99.90;;;;;;7376565;19;20309;-82
2023/02/15 03:39:28;;;;;;;18.48;11.80;;;-1.80;99.90;;;;;;7275031;19;2019119;-80
2023/02/15 03:41:53;;;;;;;18.42;12.23;;;-1.80;99.90;;;;;;7377325;19;20309;-80
2023/02/15 03:44:28;;;;;;;19.90;12.65;;;-1.80;99.90;;;;;;7376988;19;20316;-77
2023/02/15 03:47:02;;;;;;;19.70;13.00;;;-1.80;99.90;;;;;;7377213;19;21347;-81
2023/02/15 03:49:53;;;;;;;18.42;12.27;;;-1.90;99.90;;;;;;7376352;19;20312;-81
2023/02/15 03:52:19;;;;;;;19.33;12.90;;;-1.90;99.90;;;;;;7274294;19;2004505;-80
2023/02/15 03:54:48;;;;;;;21.13;12.67;;;-1.90;99.90;;;;;;7376427;19;20340;-82
2023/02/15 04:03:14;;;;;;;21.75;14.25;;;-1.90;99.90;;;;;;7376875;19;20321;-80
2023/02/15 04:05:40;;;;;;;21.00;12.73;;;-1.90;99.90;;;;;;7273882;19;2006000;-78
2023/02/15 04:08:06;;;;;;;19.80;13.77;;;-1.90;99.90;;;;;;7375934;19;20305;-79
2023/02/15 04:13:15;;;;;;;18.80;12.40;;;-2.00;99.90;;;;;;7269781;19;2004240;-80
2023/02/15 04:26:38;;;;;;;18.23;12.43;;;-2.20;99.90;;;;;;7274437;19;2004332;-80
2023/02/15 04:29:04;;;;;;;18.92;13.02;;;-2.20;99.90;;;;;;7377493;19;20316;-82
2023/02/15 04:31:29;;;;;;;23.60;14.63;;;-2.20;99.90;;;;;;7376755;19;20400;-80
2023/02/15 04:33:55;;;;;;;20.30;13.15;;;-2.20;99.90;;;;;;7376370;19;20660;-83
2023/02/15 04:36:21;;;;;;;20.37;12.80;;;-2.20;99.90;;;;;;7374996;19;20400;-84
2023/02/15 04:38:46;;;;;;;17.55;11.63;;;-2.10;99.90;;;;;;7381199;19;21079;-80
2023/02/15 04:41:12;;;;;;;19.13;12.63;;;-2.20;99.90;;;;;;7382071;19;20332;-79
2023/02/15 04:43:38;;;;;;;19.55;12.30;;;-2.30;99.90;;;;;;7379506;19;20356;-76
2023/02/15 04:46:04;;;;;;;18.93;12.53;;;-2.30;99.90;;;;;;7381757;19;20434;-80
2023/02/15 04:48:29;;;;;;;18.42;13.07;;;-2.30;99.90;;;;;;7385134;19;20312;-78
2023/02/15 04:50:55;;;;;;;18.03;12.03;;;-2.30;99.90;;;;;;7385966;19;20382;-80
2023/02/15 04:53:20;;;;;;;18.40;11.80;;;-2.30;99.90;;;;;;7385151;19;20870;-78
2023/02/15 04:55:47;;;;;;;19.00;12.70;;;-2.30;99.90;;;;;;7381920;19;20420;-79
2023/02/15 04:58:14;;;;;;;20.15;13.38;;;-2.40;99.90;;;;;;7381601;19;20335;-78
2023/02/15 05:00:39;;;;;;;16.52;12.18;;;-2.40;99.90;;;;;;7380943;19;20346;-81
2023/02/15 05:03:05;;;;;;;18.93;11.67;;;-2.30;99.90;;;;;;7379089;19;20312;-80
2023/02/15 05:05:31;;;;;;;18.73;12.43;;;-2.40;99.90;;;;;;7377918;19;20317;-78
2023/02/15 05:07:56;;;;;;;18.33;12.10;;;-2.40;99.90;;;;;;7380659;19;20321;-81
2023/02/15 05:10:22;;;;;;;18.67;12.70;;;-2.40;99.90;;;;;;7382270;19;20786;-81
2023/02/15 05:12:47;;;;;;;21.77;13.57;;;-2.40;99.90;;;;;;7385425;19;20669;-80
2023/02/15 05:15:13;;;;;;;22.90;12.93;;;-2.40;99.90;;;;;;7381258;19;20341;-78
2023/02/15 05:17:39;;;;;;;18.85;12.00;;;-2.50;99.90;;;;;;7382863;19;20381;-79
2023/02/15 05:20:05;;;;;;;17.53;12.03;;;-2.50;99.90;;;;;;7383174;19;20937;-79
2023/02/15 05:22:30;;;;;;;17.37;11.67;;;-2.60;99.90;;;;;;7382109;19;20654;-79
2023/02/15 05:30:24;;;;;;;22.15;13.63;;;-2.50;99.90;;;;;;7377804;19;21167;-77
2023/02/15 05:32:50;;;;;;;18.83;11.90;;;-2.60;99.90;;;;;;7378359;19;20348;-81
2023/02/15 05:35:17;;;;;;;18.97;11.97;;;-2.60;99.90;;;;;;7376216;19;20348;-81
2023/02/15 05:37:42;;;;;;;18.63;11.65;;;-2.60;99.90;;;;;;7378872;19;20383;-78
2023/02/15 05:40:08;;;;;;;19.15;11.93;;;-2.60;99.90;;;;;;7380462;19;20321;-78
2023/02/15 05:42:34;;;;;;;16.55;10.60;;;-2.60;99.90;;;;;;7380995;19;20328;-78
2023/02/15 05:45:00;;;;;;;15.97;10.80;;;-2.60;99.90;;;;;;7377471;19;20316;-79
2023/02/15 05:47:25;;;;;;;18.98;12.05;;;-2.60;99.90;;;;;;7379761;19;20339;-78
2023/02/15 05:49:51;;;;;;;15.13;10.77;;;-2.60;99.90;;;;;;7378446;19;20686;-78
2023/02/15 05:52:16;;;;;;;18.02;11.48;;;-2.60;99.90;;;;;;7380458;19;20336;-77
2023/02/15 05:54:42;;;;;;;16.40;11.23;;;-2.70;99.90;;;;;;7377566;19;20355;-79
2023/02/15 05:57:07;;;;;;;15.07;10.95;;;-2.60;99.90;;;;;;7380161;19;20317;-79
2023/02/15 05:59:33;;;;;;;16.60;11.53;;;-2.70;99.90;;;;;;7387182;19;20353;-80
2023/02/15 06:01:58;;;;;;;16.17;10.98;;;-2.60;99.90;;;;;;7380763;19;20317;-83
2023/02/15 06:04:24;;;;;;;18.27;11.83;;;-2.70;99.90;;;;;;7379099;19;20320;-78
2023/02/15 06:06:50;;;;;;;17.88;11.40;;;-2.70;99.90;;;;;;7392725;19;20356;-84
2023/02/15 06:09:18;;;;;;;19.33;10.87;;;-2.70;99.90;;;;;;7395044;19;20309;-81
2023/02/15 06:11:44;;;;;;;16.98;11.10;;;-2.80;99.90;;;;;;7385801;19;20694;-80
2023/02/15 06:14:10;;;;;;;14.38;10.15;;;-2.80;99.90;;;;;;7376307;19;20393;-79
2023/02/15 06:16:36;;;;;;;18.20;10.60;;;-2.80;99.90;;;;;;7381867;19;20432;-78
2023/02/15 06:19:01;;;;;;;15.95;10.68;;;-2.80;99.90;;;;;;7379570;19;20957;-78
2023/02/15 06:21:27;;;;;;;14.63;10.30;;;-2.80;99.90;;;;;;7381149;19;20297;-80
2023/02/15 06:23:53;;;;;;;16.30;10.52;;;-2.80;99.90;;;;;;7377153;19;20361;-79
2023/02/15 06:26:18;;;;;;;15.97;10.43;;;-2.80;99.90;;;;;;7377721;19;20328;-80
2023/02/15 06:28:44;;;;;;;17.33;11.50;;;-2.80;99.90;;;;;;7378740;19;20340;-78
2023/02/15 06:31:10;;;;;;;14.83;10.40;;;-2.80;99.90;;;;;;7377816;19;20324;-79
2023/02/15 06:33:35;;;;;;;13.70;10.25;;;-2.80;99.90;;;;;;7377227;19;20345;-78
2023/02/15 06:36:01;;;;;;;16.27;10.95;;;-2.80;99.90;;;;;;7376351;19;20319;-80
2023/02/15 06:38:27;;;;;;;15.53;11.27;;;-2.80;99.90;;;;;;7378288;19;20328;-78
2023/02/15 06:40:52;;;;;;;17.65;10.95;;;-2.80;99.90;;;;;;7379753;19;20352;-78
2023/02/15 06:43:18;;;;;;;16.73;11.68;;;-2.80;99.90;;;;;;7375790;19;20773;-77
2023/02/15 06:45:44;;;;;;;17.73;11.70;;;-2.80;99.90;;;;;;7377294;19;20348;-79
2023/02/15 06:48:10;;;;;;;17.02;11.38;;;-2.80;99.90;;;;;;7376580;19;20324;-81
2023/02/15 06:50:36;;;;;;;17.50;11.90;;;-2.80;99.90;;;;;;7380556;19;20376;-80
2023/02/15 06:53:02;;;;;;;20.60;12.40;;;-2.70;99.90;;;;;;7377510;19;20316;-80
2023/02/15 06:55:27;;;;;;;18.08;12.40;;;-2.70;99.90;;;;;;7374786;19;20324;-78
2023/02/15 06:57:53;;;;;;;15.63;11.57;;;-2.80;99.90;;;;;;7378042;19;20373;-79
2023/02/15 07:00:19;;;;;;;15.55;11.02;;;-2.80;99.90;;;;;;7373932;19;20443;-78
2023/02/15 07:02:44;;;;;;;17.30;11.50;;;-2.80;99.90;;;;;;7377136;19;20410;-77
2023/02/15 07:05:10;;;;;;;21.87;13.43;;;-2.80;99.90;;;;;;7373622;19;20704;-78
2023/02/15 07:07:35;;;;;;;18.15;11.88;;;-2.70;99.90;;;;;;7377061;19;20390;-79
2023/02/15 07:10:01;;;;;;;19.27;12.03;;;-2.70;99.90;;;;;;7378315;19;20320;-77
2023/02/15 07:12:42;;;;;;;16.67;11.32;;;-2.70;99.90;;;;;;7378348;19;20320;-76
2023/02/15 07:15:12;;;;;;;17.70;11.43;;;-2.70;99.90;;;;;;7272227;19;2004484;-79
2023/02/15 07:17:37;;;;;;;18.52;12.25;;;-2.70;99.90;;;;;;7377870;19;20810;-78
2023/02/15 07:20:05;;;;;;;21.35;13.45;;;-2.70;99.90;;;;;;7376671;19;20337;-78
2023/02/15 07:22:30;;;;;;;20.80;12.68;;;-2.60;99.90;;;;;;7377666;19;20324;-78
2023/02/15 07:24:56;;;;;;;22.73;14.55;;;-2.60;99.90;;;;;;7372679;19;20435;-79
2023/02/15 07:27:21;;;;;;;22.07;14.67;;;-2.50;99.90;;;;;;7377841;19;20951;-82
2023/02/15 07:29:47;;;;;;;16.75;12.73;;;-2.50;99.90;;;;;;7376182;19;20332;-80
2023/02/15 07:32:13;;;;;;;24.77;14.37;;;-2.40;99.90;;;;;;7377107;19;20891;-80
2023/02/15 07:34:39;;;;;;;19.00;12.02;;;-2.40;99.90;;;;;;7368479;19;20360;-79
2023/02/15 07:37:05;;;;;;;17.30;12.27;;;-2.30;99.90;;;;;;7383614;19;20320;-77
2023/02/15 07:39:31;;;;;;;21.33;13.50;;;-2.30;99.90;;;;;;7383523;19;20352;-79
2023/02/15 07:41:56;;;;;;;17.50;11.75;;;-2.20;99.90;;;;;;7382829;19;20736;-82
2023/02/15 07:44:28;;;;;;;17.80;12.27;;;-2.10;99.90;;;;;;7377418;19;20695;-77
2023/02/15 07:46:54;;;;;;;16.97;12.50;;;-2.10;99.90;;;;;;7377672;19;20357;-77
2023/02/15 07:49:20;;;;;;;17.95;11.98;;;-2.00;99.90;;;;;;7377195;19;20328;-78
2023/02/15 07:51:45;;;;;;;30.13;15.77;;;-1.90;99.90;;;;;;7378220;19;20349;-78
2023/02/15 07:54:11;;;;;;;19.83;12.63;;;-1.80;99.90;;;;;;7373359;19;20453;-79
2023/02/15 07:56:37;;;;;;;14.18;10.77;;;-1.70;99.90;;;;;;7377916;19;20345;-79
2023/02/15 07:59:04;;;;;;;14.60;11.47;;;-1.60;99.90;;;;;;7375428;19;20996;-77
2023/02/15 08:01:35;;;;;;;15.93;11.18;;;-1.50;99.90;;;;;;7377752;19;20313;-80
2023/02/15 08:04:00;;;;;;;15.82;11.60;;;-1.40;99.90;;;;;;7370081;19;20667;-77
2023/02/15 08:06:28;;;;;;;16.83;11.75;;;-1.30;99.90;;;;;;7377868;19;20327;-80
2023/02/15 08:08:53;;;;;;;17.95;12.65;;;-1.30;99.90;;;;;;7377813;19;20337;-78
2023/02/15 08:11:28;;;;;;;16.23;12.30;;;-1.20;99.90;;;;;;7382927;19;20392;-79
2023/02/15 08:14:12;;;;;;;25.33;16.20;;;-1.10;99.90;;;;;;7385250;19;20936;-76
2023/02/15 08:16:45;;;;;;;29.52;19.30;;;-1.10;99.90;;;;;;7281569;19;2004634;-79
2023/02/15 08:19:14;;;;;;;29.73;19.07;;;-1.00;99.90;;;;;;7385173;19;20327;-78
2023/02/15 08:21:42;;;;;;;30.45;19.83;;;-0.90;99.90;;;;;;7387174;19;20352;-85
2023/02/15 08:24:08;;;;;;;31.53;19.27;;;-0.80;99.90;;;;;;7387210;19;20396;-83
2023/02/15 08:26:34;;;;;;;29.42;19.10;;;-0.70;99.90;;;;;;7393375;19;22677;-82
2023/02/15 08:29:00;;;;;;;28.55;18.10;;;-0.60;99.90;;;;;;7393183;19;20343;-81
2023/02/15 08:31:25;;;;;;;26.80;17.13;;;-0.50;99.90;;;;;;7386798;19;20392;-77
2023/02/15 08:33:53;;;;;;;29.33;20.23;;;-0.40;99.90;;;;;;7390606;19;20624;-86
2023/02/15 08:36:20;;;;;;;27.85;18.80;;;-0.30;99.90;;;;;;7393135;19;20335;-81
2023/02/15 08:38:47;;;;;;;25.98;17.55;;;-0.20;99.90;;;;;;7382642;19;20352;-79
2023/02/15 08:41:29;;;;;;;33.78;22.08;;;-0.10;99.90;;;;;;7404649;19;20396;-82
2023/02/15 08:43:58;;;;;;;31.90;22.20;;;0.00;99.90;;;;;;7391871;19;20356;-85
2023/02/15 08:46:26;;;;;;;28.25;18.88;;;0.10;99.90;;;;;;7405211;19;20315;-87
2023/02/15 08:48:52;;;;;;;34.67;20.83;;;0.20;99.90;;;;;;7406201;19;20347;-84
2023/02/15 08:51:19;;;;;;;31.10;20.95;;;0.30;99.90;;;;;;7405697;19;20329;-88
2023/02/15 08:53:50;;;;;;;31.13;20.50;;;0.40;99.90;;;;;;7385869;19;20345;-81
2023/02/15 08:56:16;;;;;;;30.63;19.45;;;0.40;99.90;;;;;;7381853;19;20312;-81
2023/02/15 08:58:42;;;;;;;30.38;20.17;;;0.50;99.90;;;;;;7391997;19;20345;-80
2023/02/15 09:01:09;;;;;;;36.13;23.27;;;0.60;99.90;;;;;;7383555;19;20331;-82
2023/02/15 09:03:34;;;;;;;33.72;23.88;;;0.70;99.90;;;;;;7384148;19;20366;-79
2023/02/15 09:06:00;;;;;;;31.98;20.27;;;0.70;99.90;;;;;;7383603;19;20305;-81
2023/02/15 09:08:26;;;;;;;31.95;20.65;;;0.80;99.90;;;;;;7386869;19;20401;-86
2023/02/15 09:10:52;;;;;;;33.60;22.60;;;0.90;99.90;;;;;;7412763;19;20324;-87
2023/02/15 09:13:18;;;;;;;34.50;24.40;;;0.90;99.90;;;;;;7411418;19;20621;-86
2023/02/15 09:15:43;;;;;;;35.55;24.55;;;1.10;99.90;;;;;;7408379;19;20320;-90
2023/02/15 09:18:09;;;;;;;37.53;24.27;;;1.10;99.90;;;;;;7411693;19;20339;-89
2023/02/15 09:20:38;;;;;;;31.67;21.20;;;1.20;99.90;;;;;;7408637;19;20328;-89
2023/02/15 09:23:03;;;;;;;35.17;23.63;;;1.20;99.90;;;;;;7402271;19;20406;-88
2023/02/15 09:25:29;;;;;;;36.83;24.05;;;1.40;99.90;;;;;;7401686;19;20313;-88
2023/02/15 09:27:54;;;;;;;34.10;24.17;;;1.40;99.90;;;;;;7410939;19;20361;-87
2023/02/15 09:30:20;;;;;;;37.50;24.55;;;1.50;99.90;;;;;;7412078;19;20354;-89
2023/02/15 09:32:46;;;;;;;39.17;24.43;;;1.60;99.90;;;;;;7412454;19;20333;-87
2023/02/15 09:35:12;;;;;;;34.72;23.85;;;1.80;99.90;;;;;;7413232;19;20353;-87
2023/02/15 09:37:38;;;;;;;33.40;23.13;;;1.90;99.90;;;;;;7415316;19;20317;-88
2023/02/15 09:40:05;;;;;;;33.63;22.77;;;2.00;99.90;;;;;;7413441;19;20485;-88
2023/02/15 09:42:38;;;;;;;31.17;21.55;;;2.10;99.90;;;;;;7414461;19;20360;-88
2023/02/15 09:45:25;;;;;;;28.77;20.73;;;2.20;99.90;;;;;;7412938;19;20336;-90
2023/02/15 09:48:06;;;;;;;36.85;25.38;;;2.30;99.90;;;;;;7309144;19;2004227;-85
2023/02/15 09:50:41;;;;;;;33.47;23.70;;;2.50;99.90;;;;;;7413062;19;20293;-89
2023/02/15 09:53:24;;;;;;;38.08;25.98;;;2.60;99.90;;;;;;7413900;19;20312;-88
2023/02/15 09:56:15;;;;;;;35.70;24.75;;;2.70;99.90;;;;;;7296032;19;2004248;-83
2023/02/15 09:59:10;;;;;;;35.22;24.13;;;2.80;99.90;;;;;;7296757;19;2004358;-85
2023/02/15 10:01:55;;;;;;;33.10;24.05;;;3.00;99.90;;;;;;7394634;19;20337;-87
2023/02/15 10:04:20;;;;;;;32.70;23.48;;;3.10;99.90;;;;;;7300802;19;2004364;-89
2023/02/15 10:07:02;;;;;;;30.33;21.93;;;3.30;99.90;;;;;;7404885;19;20749;-92
2023/02/15 10:09:55;;;;;;;38.17;24.27;;;3.40;99.90;;;;;;7398965;19;20321;-91
2023/02/15 10:12:33;;;;;;;32.25;22.27;;;3.60;99.90;;;;;;7296862;19;2004614;-91
2023/02/15 10:15:13;;;;;;;28.50;20.00;;;3.70;99.90;;;;;;7393818;19;20887;-89
2023/02/15 10:17:49;;;;;;;28.40;22.40;;;3.80;99.90;;;;;;7291153;19;2004993;-80
2023/02/15 10:20:53;;;;;;;35.63;24.08;;;4.00;99.90;;;;;;7398102;19;20384;-84
2023/02/15 10:23:29;;;;;;;33.08;22.67;;;4.10;99.90;;;;;;7294049;19;2004239;-83
2023/02/15 10:26:01;;;;;;;32.15;22.48;;;4.20;99.90;;;;;;7397025;19;20333;-90
2023/02/15 10:28:28;;;;;;;31.65;21.63;;;4.40;99.90;;;;;;7401840;19;20347;-92
2023/02/15 10:31:26;;;;;;;28.27;21.27;;;4.50;99.90;;;;;;7405190;19;20341;-89
2023/02/15 10:34:16;;;;;;;28.63;21.05;;;4.70;99.90;;;;;;7297148;19;2004661;-88
2023/02/15 10:37:10;;;;;;;31.08;21.60;;;4.80;99.90;;;;;;7289514;19;2004417;-87
2023/02/15 10:39:52;;;;;;;23.65;17.75;;;4.90;99.90;;;;;;7399149;19;20326;-90
2023/02/15 10:42:30;;;;;;;26.27;19.88;;;5.10;99.90;;;;;;7301501;19;2004267;-90
2023/02/15 10:45:22;;;;;;;33.73;19.30;;;5.20;99.90;;;;;;7406753;19;20380;-88
2023/02/15 10:48:10;;;;;;;30.45;20.88;;;5.30;99.90;;;;;;7303588;19;2004471;-93
2023/02/15 10:50:51;;;;;;;22.67;17.10;;;5.40;99.90;;;;;;7408689;19;20353;-89
2023/02/15 10:53:43;;;;;;;23.93;16.50;;;5.50;99.90;;;;;;7304240;19;2004325;-88
2023/02/15 10:56:46;;;;;;;25.20;17.50;;;5.60;99.90;;;;;;7407702;19;20835;-86
2023/02/15 10:59:21;;;;;;;26.27;17.38;;;5.70;99.90;;;;;;7200711;19;2004524;-90
2023/02/15 11:02:10;;;;;;;26.45;18.17;;;5.90;99.90;;;;;;7407900;19;20341;-88
2023/02/15 11:05:06;;;;;;;23.20;16.50;;;6.10;99.90;;;;;;7407716;19;20301;-86
2023/02/15 11:07:36;;;;;;;24.60;15.52;;;6.30;99.90;;;;;;7304472;19;2024354;-88
2023/02/15 11:10:48;;;;;;;26.58;16.42;;;6.40;99.90;;;;;;7405777;19;20305;-88
2023/02/15 11:13:16;;;;;;;21.52;14.40;;;6.60;99.90;;;;;;7203007;19;2004409;-89
2023/02/15 11:15:49;;;;;;;21.98;13.93;;;6.90;99.90;;;;;;7405714;19;20355;-87
2023/02/15 11:18:17;;;;;;;23.10;14.90;;;7.10;99.90;;;;;;7408416;19;20316;-88
2023/02/15 11:20:53;;;;;;;21.80;15.38;;;7.30;99.90;;;;;;7406262;19;20328;-92
2023/02/15 11:23:18;;;;;;;21.48;15.23;;;7.50;99.90;;;;;;7405531;19;20315;-88
2023/02/15 11:25:58;;;;;;;19.83;14.20;;;7.60;99.90;;;;;;7406894;19;20328;-90
2023/02/15 11:28:36;;;;;;;20.15;13.60;;;7.80;99.90;;;;;;7408532;19;20317;-88
2023/02/15 11:31:12;;;;;;;19.20;13.02;;;8.00;99.90;;;;;;7406734;19;20374;-90
2023/02/15 11:33:39;;;;;;;20.57;13.73;;;8.20;99.90;;;;;;7409021;19;20712;-86
2023/02/15 11:36:12;;;;;;;21.33;14.40;;;8.50;99.90;;;;;;7409204;19;20294;-88
2023/02/15 11:38:43;;;;;;;18.43;14.07;;;8.70;99.90;;;;;;7410543;19;20301;-89
2023/02/15 11:41:11;;;;;;;20.83;13.75;;;9.00;99.90;;;;;;7410024;19;20313;-87
2023/02/15 11:43:48;;;;;;;19.60;13.03;;;9.20;99.90;;;;;;7409253;19;20301;-88
2023/02/15 11:46:14;;;;;;;17.65;12.63;;;9.40;99.90;;;;;;7307847;19;2004374;-88
2023/02/15 11:48:40;;;;;;;20.67;13.32;;;9.60;99.90;;;;;;7416929;19;20332;-89
2023/02/15 11:51:05;;;;;;;18.63;12.75;;;9.80;99.90;;;;;;7417574;19;20308;-88
2023/02/15 11:53:32;;;;;;;19.70;12.93;;;9.90;99.90;;;;;;7415779;19;20317;-88
2023/02/15 11:55:58;;;;;;;15.68;11.10;;;10.30;99.90;;;;;;7414113;19;20356;-87
2023/02/15 11:58:42;;;;;;;17.83;12.60;;;10.40;99.90;;;;;;7415186;19;20333;-87
2023/02/15 12:01:22;;;;;;;17.65;12.10;;;10.80;99.90;;;;;;7412988;19;20318;-91
2023/02/15 12:03:55;;;;;;;16.23;12.10;;;11.10;99.90;;;;;;7309982;19;2004241;-86
2023/02/15 12:06:27;;;;;;;16.30;11.88;;;10.90;99.90;;;;;;7412736;19;20352;-88
2023/02/15 12:08:56;;;;;;;17.15;11.52;;;10.90;99.90;;;;;;7410745;19;20475;-88
2023/02/15 12:11:36;;;;;;;15.85;11.40;;;10.80;99.90;;;;;;7412896;19;20316;-87
2023/02/15 12:14:05;;;;;;;17.88;12.02;;;11.00;99.90;;;;;;7412720;19;20363;-90
2023/02/15 12:16:42;;;;;;;14.52;11.35;;;11.10;99.90;;;;;;7412888;19;20316;-91
2023/02/15 12:19:26;;;;;;;17.10;12.25;;;11.20;99.90;;;;;;7412828;19;20301;-88
2023/02/15 12:21:52;;;;;;;16.50;12.80;;;11.60;99.90;;;;;;7311166;19;2004109;-86
2023/02/15 12:24:36;;;;;;;15.02;10.88;;;12.20;99.90;;;;;;7414137;19;20309;-88
2023/02/15 12:27:14;;;;;;;15.15;11.02;;;12.60;99.90;;;;;;7416281;19;20305;-84
2023/02/15 12:29:41;;;;;;;16.88;11.77;;;13.10;99.90;;;;;;7420093;19;20289;-83
2023/02/15 12:32:11;;;;;;;16.13;11.00;;;13.00;99.90;;;;;;7413455;19;20304;-84
2023/02/15 12:34:41;;;;;;;15.90;11.93;;;13.10;99.90;;;;;;7392187;19;20317;-79
2023/02/15 12:37:25;;;;;;;17.35;11.65;;;12.80;99.90;;;;;;7402472;19;20312;-80
2023/02/15 12:40:01;;;;;;;15.43;11.07;;;12.80;99.90;;;;;;7281702;19;2004493;-80
2023/02/15 12:42:28;;;;;;;13.77;10.77;;;12.70;99.90;;;;;;7383181;19;20333;-80
2023/02/15 12:44:57;;;;;;;17.77;10.88;;;12.80;99.90;;;;;;7385288;19;20341;-78
2023/02/15 12:47:23;;;;;;;17.25;10.93;;;12.60;99.90;;;;;;7383104;19;20324;-78
2023/02/15 12:50:16;;;;;;;16.67;11.67;;;12.50;99.90;;;;;;7382701;19;20428;-81
2023/02/15 12:52:47;;;;;;;13.40;9.98;;;12.90;99.90;;;;;;7283080;19;2004292;-80
2023/02/15 12:55:27;;;;;;;17.23;10.90;;;12.70;99.90;;;;;;7382445;19;21122;-77
2023/02/15 12:58:06;;;;;;;17.20;11.18;;;12.80;99.90;;;;;;7382595;19;20345;-81
2023/02/15 13:00:31;;;;;;;13.18;10.18;;;12.80;99.90;;;;;;7383206;19;20313;-80
2023/02/15 13:02:58;;;;;;;15.80;11.33;;;12.80;99.90;;;;;;7383702;19;20348;-80
2023/02/15 13:05:35;;;;;;;16.95;11.32;;;12.70;99.90;;;;;;7382690;19;20719;-80
2023/02/15 13:08:27;;;;;;;15.00;10.57;;;12.70;99.90;;;;;;7382749;19;20320;-81
2023/02/15 13:10:52;;;;;;;16.95;11.57;;;12.70;99.90;;;;;;7282687;19;2004572;-79